Date,TemperatureHighF,TemperatureAvgF,TemperatureLowF,DewpointHighF,DewpointAvgF,DewpointLowF,HumidityHigh,HumidityAvg,HumidityLow,PressureMaxIn,PressureMinIn,WindSpeedMaxMPH,WindSpeedAvgMPH,GustSpeedMaxMPH,PrecipitationSumIn
2013-4-1,66,59,54,52,50,46,83,71,53,30.06,29.96,11,4,19,0.00
2013-4-2,67,60,53,53,50,48,85,73,52,29.99,29.88,8,2,12,0.00
2013-4-3,74,60,53,55,52,50,91,76,51,29.98,29.87,10,2,14,0.00
2013-4-4,72,62,56,54,52,51,85,73,49,30.00,29.90,9,4,14,0.00
2013-4-5,67,60,57,55,53,52,88,79,63,29.99,29.90,10,4,16,0.00
2013-4-6,68,61,57,54,53,51,86,76,58,29.97,29.85,9,4,13,0.00
2013-4-7,69,61,57,55,53,51,87,76,57,29.86,29.70,8,3,16,0.00
2013-4-8,66,60,55,54,44,35,87,58,35,29.72,29.55,17,9,24,0.00
2013-4-9,74,62,50,47,37,25,77,43,16,29.89,29.70,14,4,19,0.00
2013-4-10,80,63,47,50,43,27,88,55,15,29.98,29.86,10,3,18,0.00
2013-4-11,70,59,49,54,49,44,86,71,40,29.89,29.68,9,3,16,0.00
2013-4-12,70,60,56,52,50,49,86,70,52,29.79,29.67,8,4,14,0.00
2013-4-13,60,57,55,53,51,48,91,81,76,29.81,29.74,6,3,8,0.00
2013-4-14,63,57,54,52,49,47,83,75,63,29.78,29.72,8,4,14,0.00
2013-4-15,65,58,55,52,49,46,87,73,60,29.80,29.73,8,5,14,0.02
2013-4-16,64,57,50,47,41,24,75,56,25,29.87,29.76,14,6,20,0.00
2013-4-17,74,63,53,42,28,21,66,28,14,30.00,29.88,13,6,18,0.00
2013-4-18,80,64,47,42,29,19,78,35,11,30.08,29.98,13,4,19,0.00
2013-4-19,84,66,46,49,34,22,73,39,11,30.04,29.84,11,3,14,0.00
2013-4-20,79,64,53,56,52,40,91,68,26,29.88,29.76,7,2,10,0.00
2013-4-21,71,61,56,57,54,52,93,79,53,29.90,29.83,8,3,12,0.00
2013-4-22,67,60,56,53,51,49,84,72,58,29.90,29.80,9,4,13,0.00
2013-4-23,69,61,56,53,50,48,79,68,52,29.87,29.75,8,3,11,0.00
2013-4-24,63,59,57,53,51,49,83,74,61,29.87,29.79,7,2,9,0.00
2013-4-25,70,63,57,52,50,46,80,64,44,30.00,29.85,9,3,13,0.01
2013-4-26,74,62,50,53,50,47,89,67,41,30.04,29.98,10,3,12,0.00
2013-4-27,77,62,52,56,53,49,91,72,43,30.04,29.88,7,3,11,0.00
2013-4-28,71,63,57,56,54,52,88,74,57,29.92,29.75,7,3,12,0.00
2013-4-29,66,60,57,54,53,51,89,78,61,29.80,29.68,8,4,10,0.00
2013-4-30,65,60,57,53,52,50,80,74,65,29.78,29.72,8,4,11,0.00